Time;durP1;ratioP1;P1;durP2;ratioP2;P2;SDS_P1;SDS_P2;PMS_P1;PMS_P2;Temp;Humidity;BMP_temperature;BMP_pressure;BME280_temperature;BME280_humidity;BME280_pressure;Samples;Min_cycle;Max_cycle;Signal;HPM_P1;HPM_P2
2020/12/30 00:02:21;;;;;;;36.17;22.07;;;;;;;6.11;84.17;100137.81;1671114;82;21255;-93
2020/12/30 00:15:51;;;;;;;40.77;24.67;;;;;;;6.07;84.64;100158.98;1766104;78;22796;-88
2020/12/30 00:18:32;;;;;;;54.23;32.30;;;;;;;6.01;84.64;100163.93;1777988;79;22982;-90
2020/12/30 00:21:17;;;;;;;53.50;29.07;;;;;;;6.08;84.18;100177.83;1785893;79;21160;-94
2020/12/30 00:33:54;;;;;;;32.47;21.47;;;;;;;6.13;83.31;100172.87;1686494;80;21181;-94
2020/12/30 00:40:07;;;;;;;40.73;22.00;;;;;;;6.19;83.47;100177.51;1624514;85;21129;-92
2020/12/30 00:43:34;;;;;;;;;;;;;;;;;;;;;
2020/12/30 01:36:27;;;;;;;31.50;22.97;;;;;;;5.84;82.75;100175.44;1634989;82;21354;-91
2020/12/30 01:53:03;;;;;;;40.90;25.10;;;;;;;5.69;84.06;100177.88;1798059;78;21803;-89
2020/12/30 01:56:09;;;;;;;42.97;28.77;;;;;;;5.85;83.88;100176.58;1805371;78;21175;-90
2020/12/30 01:59:14;;;;;;;;;;;;;;;;;;;;;
2020/12/30 02:02:06;;;;;;;66.67;39.33;;;;;;;6.20;83.17;100161.47;1775688;79;21169;-91
2020/12/30 02:04:52;;;;;;;82.60;46.90;;;;;;;6.24;82.95;100159.33;1736585;80;21170;-86
2020/12/30 02:07:23;;;;;;;60.63;40.20;;;;;;;6.24;82.89;100159.33;1674906;82;21256;-89
2020/12/30 02:09:53;;;;;;;55.57;37.00;;;;;;;6.34;82.51;100157.33;1693155;83;21205;-91
2020/12/30 02:12:23;;;;;;;44.10;31.27;;;;;;;6.49;81.80;100171.24;1697147;83;21339;-91
2020/12/30 02:14:53;;;;;;;39.73;28.90;;;;;;;6.50;81.47;100169.76;1690276;83;21555;-89
2020/12/30 02:17:26;;;;;;;38.50;25.63;;;;;;;6.43;81.36;100170.08;1692899;83;21311;-91
2020/12/30 02:20:26;;;;;;;;;;;;;;;;;;;;;
2020/12/30 02:36:16;;;;;;;61.77;29.67;;;;;;;6.06;81.29;100152.02;1687973;79;21280;-89
2020/12/30 02:38:57;;;;;;;86.03;34.00;;;;;;;6.23;81.03;100147.06;1818888;76;23463;-90
2020/12/30 02:41:26;;;;;;;50.43;24.63;;;;;;;6.22;81.01;100149.40;1780065;78;21324;-92
2020/12/30 03:18:31;;;;;;;40.40;28.40;;;;;;;5.92;81.32;100138.92;1714954;78;21173;-94
2020/12/30 04:01:47;;;;;;;40.97;26.40;;;;;;;5.71;80.41;100131.41;1638881;83;21188;-94
2020/12/30 04:18:15;;;;;;;;;;;;;;;;;;;;;
2020/12/30 04:31:37;;;;;;;36.27;25.20;;;;;;;4.97;82.54;100143.87;1705233;79;22511;-92
2020/12/30 04:47:57;;;;;;;52.20;29.87;;;;;;;5.07;82.73;100152.49;1620356;82;21266;-83
2020/12/30 04:50:56;;;;;;;40.67;33.58;;;;;;;5.28;82.21;100150.45;1834724;76;28710;-85
2020/12/30 04:53:24;;;;;;;47.30;31.10;;;;;;;5.46;81.77;100151.17;1828709;77;21642;-84
2020/12/30 04:55:59;;;;;;;33.30;26.90;;;;;;;5.61;81.22;100158.84;1740591;81;21337;-87
2020/12/30 04:58:30;;;;;;;24.63;21.00;;;;;;;5.59;81.25;100157.33;1766673;81;21226;-86
2020/12/30 05:00:59;;;;;;;31.77;25.87;;;;;;;5.68;80.69;100155.55;1807135;79;21184;-83
2020/12/30 05:03:31;;;;;;;29.67;24.10;;;;;;;5.63;80.59;100156.87;1803277;79;21192;-89
2020/12/30 05:06:05;;;;;;;31.53;24.17;;;;;;;5.55;80.91;100158.14;1784027;79;21576;-85
2020/12/30 05:08:35;;;;;;;33.70;24.97;;;;;;;5.49;81.08;100154.00;1734638;81;21195;-85
2020/12/30 05:11:02;;;;;;;34.10;26.43;;;;;;;5.52;80.91;100145.73;1736338;81;21175;-87
2020/12/30 05:13:29;;;;;;;31.87;24.77;;;;;;;5.57;80.77;100142.94;1742737;81;21167;-86
2020/12/30 05:15:59;;;;;;;24.77;21.70;;;;;;;5.49;80.78;100137.64;1740670;81;21164;-84
2020/12/30 05:18:36;;;;;;;;;;;;;;;;;;;;;
2020/12/30 05:21:06;;;;;;;23.93;20.07;;;;;;;5.50;81.07;100135.34;1772557;79;23137;-86
2020/12/30 05:23:34;;;;;;;24.27;20.80;;;;;;;5.45;80.88;100154.81;1750682;81;21184;-84
2020/12/30 05:26:03;;;;;;;29.27;22.87;;;;;;;5.34;81.18;100158.56;1759070;81;21164;-86
2020/12/30 05:31:19;;;;;;;25.50;22.60;;;;;;;5.50;81.18;100155.64;1837276;75;22622;-85
2020/12/30 05:33:50;;;;;;;25.97;22.23;;;;;;;5.42;81.23;100159.91;1803285;78;21185;-86
2020/12/30 05:36:23;;;;;;;27.73;23.37;;;;;;;5.35;81.41;100161.55;1782640;78;21084;-87
2020/12/30 05:38:50;;;;;;;32.07;26.27;;;;;;;4.38;81.45;100017.45;1762620;79;21196;-85
2020/12/30 05:41:20;;;;;;;29.37;24.20;;;;;;;5.39;81.54;100166.03;1763723;79;21151;-87
2020/12/30 05:43:49;;;;;;;28.40;24.17;;;;;;;5.50;81.11;100167.07;1768496;79;21625;-90
2020/12/30 05:46:27;;;;;;;27.87;24.83;;;;;;;5.54;81.14;100177.66;1763206;79;22087;-87
2020/12/30 05:48:54;;;;;;;26.80;22.32;;;;;;;5.51;81.30;100179.28;1768654;79;21219;-87
2020/12/30 05:51:41;;;;;;;;;;;;;;;;;;;;;
2020/12/30 05:54:13;;;;;;;29.10;23.20;;;;;;;5.62;81.23;100169.73;1785305;78;22705;-89
2020/12/30 05:56:41;;;;;;;27.33;23.20;;;;;;;5.69;80.84;100176.55;1750440;80;21340;-88
2020/12/30 05:59:08;;;;;;;32.23;26.17;;;;;;;5.68;80.84;100178.03;1742514;80;21569;-86
2020/12/30 06:01:52;;;;;;;;;;;;;;;;;;;;;
2020/12/30 06:04:34;;;;;;;26.60;22.00;;;;;;;5.60;81.03;100178.33;1773898;79;22983;-87
2020/12/30 06:11:12;;;;;;;29.17;23.97;;;;;;;5.74;80.61;100178.70;1826236;76;24869;-91
2020/12/30 06:13:36;;;;;;;29.43;25.10;;;;;;;5.61;80.92;100189.26;1775192;78;21209;-86
2020/12/30 06:16:04;;;;;;;29.73;24.87;;;;;;;5.56;81.03;100192.86;1767655;78;21186;-87
2020/12/30 06:19:12;;;;;;;30.93;24.73;;;;;;;5.71;80.88;100189.12;1784653;78;23850;-88
2020/12/30 06:21:48;;;;;;;32.20;26.53;;;;;;;5.72;80.58;100200.52;1682335;83;21166;-87
2020/12/30 06:24:26;;;;;;;36.33;27.53;;;;;;;5.66;80.73;100193.55;1724167;81;21219;-89
2020/12/30 06:27:03;;;;;;;34.33;27.07;;;;;;;5.65;80.87;100185.30;1811637;79;23497;-86
2020/12/30 06:29:34;;;;;;;31.83;24.90;;;;;;;5.70;80.63;100196.70;1683438;83;21164;-87
2020/12/30 06:32:02;;;;;;;39.67;28.77;;;;;;;5.79;80.35;100194.42;1691946;83;21236;-86
2020/12/30 06:34:29;;;;;;;45.20;31.17;;;;;;;5.81;80.46;100196.91;1702617;83;21173;-89
2020/12/30 06:37:04;;;;;;;34.33;27.07;;;;;;;5.80;80.65;100191.28;1616316;85;21088;-87
2020/12/30 06:39:31;;;;;;;31.00;25.37;;;;;;;5.78;80.66;100194.11;1619753;87;21191;-88
2020/12/30 06:42:23;;;;;;;26.90;23.33;;;;;;;5.84;80.38;100201.89;1625113;83;21315;-91
2020/12/30 06:44:54;;;;;;;28.93;24.23;;;;;;;5.94;80.13;100196.46;1560504;90;21262;-92
2020/12/30 06:50:54;;;;;;;28.23;23.12;;;;;;;5.76;79.87;100187.30;1608632;87;21214;-90
2020/12/30 06:53:30;;;;;;;26.53;19.97;;;;;;;5.60;80.07;100188.09;1593178;87;21474;-86
2020/12/30 06:56:00;;;;;;;24.20;19.60;;;;;;;5.59;80.08;100184.59;1643936;85;21280;-90
2020/12/30 06:58:50;;;;;;;23.80;21.23;;;;;;;5.68;79.87;100176.70;1644178;85;21351;-93
2020/12/30 07:01:28;;;;;;;28.60;22.30;;;;;;;5.64;79.96;100171.73;1643248;85;21257;-93
2020/12/30 07:04:29;;;;;;;31.93;23.37;;;;;;;5.60;80.30;100161.64;1838649;75;21093;-89
2020/12/30 07:09:38;;;;;;;23.27;20.37;;;;;;;5.52;80.39;100166.89;1809320;78;21158;-87
2020/12/30 07:12:28;;;;;;;25.00;22.17;;;;;;;5.65;80.22;100154.03;1841746;76;22615;-90
2020/12/30 07:15:03;;;;;;;25.87;22.30;;;;;;;5.59;80.28;100155.51;1713143;81;21139;-88
2020/12/30 07:17:35;;;;;;;27.10;20.03;;;;;;;5.52;80.51;100150.55;1734415;80;21178;-91
2020/12/30 07:20:03;;;;;;;40.17;27.03;;;;;;;5.47;80.75;100148.87;1731048;81;21159;-90
2020/12/30 07:22:31;;;;;;;25.33;21.30;;;;;;;5.53;80.78;100154.02;1688447;81;21270;-89
2020/12/30 07:25:13;;;;;;;;;;;;;;;;;;;;;
2020/12/30 07:27:45;;;;;;;33.23;24.47;;;;;;;5.62;80.68;100159.16;1732223;80;21305;-90
2020/12/30 07:30:29;;;;;;;50.03;26.07;;;;;;;5.55;81.12;100168.72;1759294;80;21179;-91
2020/12/30 07:35:38;;;;;;;50.98;32.33;;;;;;;5.61;81.54;100159.31;1786237;78;28183;-89
2020/12/30 07:38:08;;;;;;;50.93;29.03;;;;;;;5.81;81.13;100162.53;1710616;83;21262;-90
2020/12/30 07:40:39;;;;;;;50.07;29.23;;;;;;;5.97;80.82;100153.34;1728160;80;21242;-87
2020/12/30 07:43:28;;;;;;;40.57;25.97;;;;;;;5.93;81.17;100162.54;1667045;82;21159;-89
2020/12/30 07:46:20;;;;;;;48.23;25.77;;;;;;;5.99;81.32;100158.45;1727143;80;21277;-88
2020/12/30 07:48:52;;;;;;;49.27;27.10;;;;;;;6.09;81.13;100167.58;1724914;82;21182;-86
2020/12/30 07:54:01;;;;;;;39.47;24.00;;;;;;;6.10;81.74;100157.31;1813786;77;23113;-89
2020/12/30 07:56:43;;;;;;;44.63;24.33;;;;;;;6.08;81.93;100157.98;1715280;82;21206;-88
2020/12/30 07:59:24;;;;;;;41.80;23.33;;;;;;;6.19;81.83;100171.71;1744736;81;21169;-87
2020/12/30 08:02:15;;;;;;;47.40;24.73;;;;;;;6.32;81.43;100169.91;1744427;81;21804;-90
2020/12/30 08:05:03;;;;;;;42.37;21.73;;;;;;;6.32;81.54;100173.88;1738068;80;21160;-90
2020/12/30 08:07:32;;;;;;;35.60;21.43;;;;;;;6.22;81.87;100172.72;1658158;84;21199;-87
2020/12/30 08:10:02;;;;;;;92.37;31.73;;;;;;;6.29;81.67;100175.55;1631264;85;21279;-91
2020/12/30 08:12:52;;;;;;;73.03;30.47;;;;;;;6.37;81.34;100158.34;1620652;84;21160;-95
2020/12/30 08:15:25;;;;;;;83.33;32.40;;;;;;;6.41;81.50;100164.95;1683192;83;21215;-87
2020/12/30 08:18:15;;;;;;;58.53;24.67;;;;;;;6.36;81.55;100160.64;1637704;87;21233;-86
2020/12/30 08:20:54;;;;;;;52.37;23.30;;;;;;;6.36;81.61;100167.77;1680857;84;21151;-96
2020/12/30 08:36:42;;;;;;;65.93;30.93;;;;;;;6.39;81.42;100147.08;1687666;83;22436;-85
2020/12/30 08:39:26;;;;;;;77.83;30.37;;;;;;;6.25;81.99;100139.78;1811754;77;23521;-85
2020/12/30 08:41:59;;;;;;;57.77;27.83;;;;;;;6.28;81.99;100160.64;1759866;81;21255;-82
2020/12/30 08:44:26;;;;;;;87.77;35.50;;;;;;;5.48;81.43;100007.76;1749354;81;21717;-80
2020/12/30 08:46:58;;;;;;;45.30;24.30;;;;;;;6.40;81.51;100159.34;1747597;81;21164;-86
2020/12/30 08:49:32;;;;;;;60.93;27.27;;;;;;;6.34;81.55;100157.84;1743353;81;21188;-90
2020/12/30 08:52:20;;;;;;;46.37;23.63;;;;;;;6.38;81.47;100150.70;1762867;81;21390;-83
2020/12/30 08:54:48;;;;;;;43.57;24.77;;;;;;;6.54;81.13;100155.70;1768061;81;21217;-84
2020/12/30 08:57:20;;;;;;;30.63;23.47;;;;;;;6.50;81.03;100142.43;1733724;79;21212;-89
2020/12/30 09:00:24;;;;;;;27.30;19.13;;;;;;;6.34;81.20;100136.66;1757195;80;21158;-89
2020/12/30 09:02:54;;;;;;;27.87;23.20;;;;;;;6.37;81.15;100157.02;1773556;79;21741;-83
2020/12/30 09:05:29;;;;;;;28.33;20.00;;;;;;;6.36;81.13;100145.26;1724526;77;21496;-86
2020/12/30 09:08:20;;;;;;;28.80;21.97;;;;;;;6.30;81.33;100145.42;1738606;81;21196;-84
2020/12/30 09:10:48;;;;;;;24.00;17.77;;;;;;;6.24;81.49;100140.80;1722471;81;21205;-84
2020/12/30 09:13:29;;;;;;;22.73;18.30;;;;;;;6.28;81.34;100142.12;1752370;81;21875;-83
2020/12/30 09:16:04;;;;;;;26.33;21.37;;;;;;;6.30;81.22;100134.02;1742925;81;21222;-82
2020/12/30 09:18:31;;;;;;;22.27;17.37;;;;;;;6.25;81.41;100134.49;1734130;81;21174;-85
2020/12/30 09:20:58;;;;;;;27.73;21.87;;;;;;;6.14;81.78;100138.31;1669737;84;21706;-84
2020/12/30 09:23:28;;;;;;;26.23;20.53;;;;;;;6.12;81.93;100138.13;1687199;84;21223;-84
2020/12/30 09:25:59;;;;;;;24.83;19.53;;;;;;;6.10;81.95;100134.82;1682795;84;21199;-84
2020/12/30 09:28:27;;;;;;;26.80;19.07;;;;;;;6.00;82.28;100139.77;1685405;85;21345;-85
2020/12/30 09:30:56;;;;;;;27.60;20.90;;;;;;;5.95;82.61;100120.05;1711449;82;21321;-83
2020/12/30 09:33:25;;;;;;;21.80;15.70;;;;;;;6.04;82.32;100138.45;1687027;83;21231;-84
2020/12/30 09:35:51;;;;;;;29.80;21.97;;;;;;;6.08;82.29;100133.66;1695386;83;21112;-83
2020/12/30 09:38:24;;;;;;;30.03;21.43;;;;;;;6.02;82.47;100115.30;1711723;82;21353;-85
2020/12/30 09:40:53;;;;;;;29.43;19.20;;;;;;;5.98;82.66;100096.78;1709381;82;21345;-85
2020/12/30 09:43:22;;;;;;;29.70;21.73;;;;;;;6.06;82.57;100108.36;1708307;82;21755;-85
2020/12/30 09:45:57;;;;;;;33.33;21.20;;;;;;;6.14;82.34;100115.82;1682547;84;21358;-87
2020/12/30 09:48:24;;;;;;;40.27;25.47;;;;;;;6.14;82.13;100119.79;1685101;83;21350;-86
2020/12/30 09:50:52;;;;;;;40.27;27.10;;;;;;;6.11;82.33;100111.35;1697901;82;21426;-85
2020/12/30 09:53:20;;;;;;;45.30;27.93;;;;;;;6.08;82.41;100109.02;1708665;82;22046;-85
2020/12/30 09:55:51;;;;;;;50.43;30.60;;;;;;;6.18;82.26;100101.77;1686872;84;21213;-85
2020/12/30 09:58:24;;;;;;;50.13;31.33;;;;;;;6.23;82.15;100097.63;1706391;82;21395;-82
2020/12/30 10:00:51;;;;;;;57.37;28.07;;;;;;;6.24;82.25;100093.16;1679403;84;21212;-83
2020/12/30 10:03:25;;;;;;;65.97;32.47;;;;;;;6.20;82.11;100095.81;1702846;83;21192;-84
2020/12/30 10:05:52;;;;;;;51.73;32.80;;;;;;;6.25;81.84;100100.08;1667890;84;21382;-82
2020/12/30 10:08:19;;;;;;;60.97;36.63;;;;;;;6.22;81.83;100096.47;1655489;85;21185;-83
2020/12/30 10:10:47;;;;;;;54.37;33.43;;;;;;;6.12;82.22;100094.46;1645023;86;21257;-85
2020/12/30 10:13:16;;;;;;;48.20;31.77;;;;;;;6.10;82.28;100091.16;1662257;86;21221;-84
2020/12/30 10:15:45;;;;;;;51.10;31.67;;;;;;;6.11;82.28;100092.83;1659037;86;21231;-83
2020/12/30 10:18:12;;;;;;;40.10;29.07;;;;;;;6.19;82.14;100092.81;1626079;87;21215;-83
2020/12/30 10:20:39;;;;;;;47.17;30.00;;;;;;;6.11;82.29;100087.03;1638185;86;21675;-84
2020/12/30 10:23:09;;;;;;;37.33;28.63;;;;;;;6.09;82.43;100085.55;1655790;85;22272;-83
2020/12/30 10:25:48;;;;;;;36.83;26.40;;;;;;;6.08;82.32;100077.27;1658475;86;21212;-83
2020/12/30 10:28:12;;;;;;;32.85;23.60;;;;;;;6.16;82.03;100079.43;1658612;85;21234;-84
2020/12/30 10:30:39;;;;;;;44.97;29.80;;;;;;;6.20;81.96;100078.60;1662824;86;21196;-85
2020/12/30 10:33:08;;;;;;;40.97;28.57;;;;;;;6.12;82.05;100078.59;1660283;85;21340;-85
2020/12/30 10:35:37;;;;;;;38.70;28.33;;;;;;;6.06;82.24;100073.96;1647960;83;21093;-84
2020/12/30 10:38:04;;;;;;;34.60;23.27;;;;;;;6.14;82.13;100066.86;1694060;84;21407;-84
2020/12/30 10:40:31;;;;;;;49.93;32.60;;;;;;;6.15;81.97;100066.36;1693982;84;21766;-85
2020/12/30 10:43:03;;;;;;;37.87;27.43;;;;;;;6.13;82.08;100064.37;1691954;84;21343;-82
2020/12/30 10:45:30;;;;;;;35.27;25.40;;;;;;;6.08;82.37;100058.75;1687836;84;21329;-86
2020/12/30 10:48:09;;;;;;;36.77;27.00;;;;;;;6.16;82.25;100057.41;1695838;83;21199;-86
2020/12/30 10:50:47;;;;;;;34.00;23.70;;;;;;;6.27;81.94;100046.98;1748295;80;22867;-84
2020/12/30 10:53:18;;;;;;;41.53;26.90;;;;;;;6.24;82.01;100055.59;1745290;81;21828;-84
2020/12/30 10:55:50;;;;;;;33.43;26.23;;;;;;;6.22;82.15;100057.58;1738619;81;21188;-83
2020/12/30 10:58:19;;;;;;;31.83;25.13;;;;;;;6.22;82.08;100053.61;1707290;81;21196;-84
2020/12/30 11:00:46;;;;;;;34.30;25.53;;;;;;;6.35;81.82;100058.41;1739585;81;21180;-84
2020/12/30 11:03:13;;;;;;;49.47;30.53;;;;;;;6.40;81.30;100053.91;1729307;82;21183;-84
2020/12/30 11:05:41;;;;;;;41.80;29.60;;;;;;;6.31;81.42;100046.98;1727551;81;21256;-84
2020/12/30 11:08:11;;;;;;;35.20;25.67;;;;;;;6.23;81.83;100044.69;1713414;82;21605;-84
2020/12/30 11:10:38;;;;;;;44.00;28.43;;;;;;;6.30;81.72;100044.02;1712931;82;21324;-83
2020/12/30 11:13:05;;;;;;;38.93;27.60;;;;;;;6.42;81.38;100042.18;1712425;82;21303;-84
2020/12/30 11:15:35;;;;;;;44.07;31.80;;;;;;;6.47;81.32;100040.34;1710902;82;21612;-84
2020/12/30 11:18:04;;;;;;;44.57;30.73;;;;;;;6.49;81.54;100035.70;1708866;82;21691;-85
2020/12/30 11:20:31;;;;;;;38.83;24.03;;;;;;;6.51;81.55;100031.05;1710563;82;21338;-87
2020/12/30 11:22:59;;;;;;;36.10;27.40;;;;;;;6.60;80.91;100028.72;1702307;82;21158;-87
2020/12/30 11:25:26;;;;;;;33.13;24.13;;;;;;;6.76;80.64;100022.55;1711726;82;21174;-85
2020/12/30 11:27:53;;;;;;;34.33;26.77;;;;;;;6.80;80.38;100028.34;1711103;82;21209;-85
2020/12/30 11:30:20;;;;;;;34.33;27.17;;;;;;;6.71;80.25;100024.89;1710376;82;21165;-86
2020/12/30 11:32:56;;;;;;;;;;;;;;;;;;;;;
2020/12/30 11:35:22;;;;;;;32.13;25.00;;;;;;;6.55;80.48;100025.74;1711829;82;21189;-83
2020/12/30 11:37:48;;;;;;;27.97;23.70;;;;;;;6.59;80.40;100009.02;1721002;82;21321;-85
2020/12/30 11:40:15;;;;;;;32.43;25.70;;;;;;;6.59;80.47;100009.02;1714393;82;21211;-86
2020/12/30 11:42:44;;;;;;;28.53;23.30;;;;;;;6.49;80.72;99999.13;1717200;82;21188;-88
2020/12/30 11:45:16;;;;;;;27.83;22.07;;;;;;;6.50;80.78;99998.97;1722953;82;21313;-89
2020/12/30 11:47:44;;;;;;;33.10;25.33;;;;;;;6.54;80.58;99998.13;1712736;82;21208;-90
2020/12/30 11:50:12;;;;;;;32.80;25.93;;;;;;;6.48;80.74;100010.70;1678438;83;21155;-89
2020/12/30 11:52:49;;;;;;;34.33;24.23;;;;;;;6.37;81.13;100005.30;1703270;83;21194;-89
2020/12/30 11:55:19;;;;;;;38.57;23.73;;;;;;;6.38;81.23;100003.78;1718955;81;21190;-91
2020/12/30 11:58:15;;;;;;;31.03;23.67;;;;;;;5.45;81.05;99852.14;1723871;82;21214;-92
2020/12/30 12:00:53;;;;;;;31.17;23.37;;;;;;;6.42;81.29;100001.14;1718684;82;21222;-88
2020/12/30 12:03:38;;;;;;;;;;;;;;;;;;;;;
2020/12/30 12:06:26;;;;;;;28.17;22.87;;;;;;;6.43;81.63;99993.52;1765091;79;23511;-90
2020/12/30 12:08:59;;;;;;;29.03;21.07;;;;;;;6.43;81.53;99992.19;1676612;82;21180;-91
2020/12/30 12:11:34;;;;;;;35.07;26.07;;;;;;;6.38;81.81;99998.98;1713124;82;21367;-92
2020/12/30 12:14:16;;;;;;;27.80;21.20;;;;;;;6.48;81.61;99993.02;1672856;82;21183;-92
2020/12/30 12:24:09;;;;;;;26.87;21.80;;;;;;;6.52;81.98;99986.89;1573754;88;21226;-88
2020/12/30 12:39:41;;;;;;;28.70;20.13;;;;;;;6.49;82.63;99981.42;1666650;81;21257;-93
2020/12/30 12:46:29;;;;;;;31.87;22.07;;;;;;;6.58;82.58;99977.75;1619231;82;21157;-89
2020/12/30 12:50:21;;;;;;;38.95;24.02;;;;;;;6.49;83.41;99997.81;1616273;82;21282;-93
2020/12/30 12:53:27;;;;;;;29.87;22.80;;;;;;;6.50;83.66;99985.73;1669243;81;21282;-91
2020/12/30 12:56:20;;;;;;;35.70;27.77;;;;;;;6.58;83.53;99983.05;1704254;81;21245;-93
2020/12/30 13:24:32;;;;;;;26.70;18.23;;;;;;;6.87;83.50;99959.08;1770541;80;24230;-93
2020/12/30 13:27:49;;;;;;;23.95;19.55;;;;;;;6.78;83.66;99962.28;1679835;83;21248;-94
2020/12/30 13:30:58;;;;;;;25.53;18.77;;;;;;;6.76;83.78;99941.77;1683700;82;21120;-93
2020/12/30 13:34:14;;;;;;;31.30;21.52;;;;;;;6.86;83.56;99952.65;1672084;84;21164;-93
2020/12/30 13:47:57;;;;;;;26.17;19.80;;;;;;;7.05;84.20;99944.25;1757514;80;23185;-94
2020/12/30 13:51:12;;;;;;;31.93;22.27;;;;;;;7.02;84.24;99945.91;1732316;79;21108;-94
2020/12/30 13:54:48;;;;;;;31.13;21.83;;;;;;;7.01;84.44;99942.95;1693834;81;21191;-92
2020/12/30 13:58:10;;;;;;;28.27;21.13;;;;;;;7.17;84.17;99935.39;1677256;81;21145;-94
2020/12/30 14:01:40;;;;;;;;;;;;;;;;;;;;;
2020/12/30 14:05:08;;;;;;;;;;;;;;;;;;;;;
2020/12/30 14:12:08;;;;;;;33.07;24.20;;;;;;;6.34;83.44;99757.61;1535090;90;21750;-94
2020/12/30 14:15:20;;;;;;;31.00;22.45;;;;;;;7.45;83.37;99921.61;1594204;84;21168;-92
2020/12/30 14:18:13;;;;;;;34.23;27.83;;;;;;;7.59;83.20;99903.09;1820210;77;23140;-89
2020/12/30 14:23:38;;;;;;;34.63;22.67;;;;;;;7.65;83.03;99904.67;1760172;79;22958;-87
2020/12/30 14:26:10;;;;;;;30.23;24.43;;;;;;;7.73;82.69;99906.77;1734355;80;21133;-88
2020/12/30 14:28:40;;;;;;;28.27;23.57;;;;;;;7.84;82.35;99903.37;1723495;82;21303;-88
2020/12/30 14:31:13;;;;;;;36.43;27.33;;;;;;;7.91;82.05;99899.80;1729912;80;21196;-87
2020/12/30 14:33:45;;;;;;;30.17;24.40;;;;;;;7.83;82.16;99907.83;1725352;82;21310;-88
2020/12/30 14:36:23;;;;;;;31.83;24.60;;;;;;;7.85;82.11;99919.08;1713241;80;21560;-85
2020/12/30 14:38:51;;;;;;;30.37;23.95;;;;;;;7.96;81.84;99910.67;1690556;83;21191;-88
2020/12/30 14:41:18;;;;;;;32.47;24.87;;;;;;;8.02;81.64;99910.45;1695132;83;21210;-89
2020/12/30 14:43:48;;;;;;;25.03;22.27;;;;;;;8.08;81.46;99895.14;1694172;84;21234;-89
2020/12/30 14:46:20;;;;;;;29.83;25.93;;;;;;;8.12;81.35;99891.11;1680856;84;21811;-87
2020/12/30 14:49:13;;;;;;;28.77;23.63;;;;;;;8.16;81.32;99883.61;1871230;75;23028;-89
2020/12/30 14:51:52;;;;;;;;;;;;;;;;;;;;;
2020/12/30 14:54:37;;;;;;;24.97;18.77;;;;;;;8.25;81.14;99885.16;1864068;76;25330;-89
2020/12/30 14:57:09;;;;;;;23.73;19.27;;;;;;;8.25;80.97;99886.49;1800618;79;21167;-86
2020/12/30 14:59:42;;;;;;;21.23;15.77;;;;;;;8.16;81.27;99884.94;1794091;78;21141;-87
2020/12/30 15:02:30;;;;;;;22.53;15.73;;;;;;;8.25;81.00;99894.45;1785200;77;21567;-87
2020/12/30 15:05:03;;;;;;;19.97;15.63;;;;;;;8.30;80.85;99885.92;1760945;80;21196;-87
2020/12/30 15:07:30;;;;;;;20.17;14.90;;;;;;;8.26;80.86;99886.80;1816474;78;21200;-87
2020/12/30 15:10:14;;;;;;;17.53;14.20;;;;;;;8.19;81.10;99887.20;1793205;78;21290;-85
2020/12/30 15:12:45;;;;;;;14.70;13.20;;;;;;;8.22;81.10;99884.19;1750446;79;22084;-88
2020/12/30 15:15:14;;;;;;;16.53;13.07;;;;;;;8.26;80.87;99890.78;1803372;78;21186;-90
2020/12/30 15:17:43;;;;;;;17.40;14.07;;;;;;;8.23;80.91;99875.23;1798811;77;21191;-89
2020/12/30 15:20:16;;;;;;;19.90;13.20;;;;;;;8.14;81.23;99882.46;1778828;79;21323;-88
2020/12/30 15:22:48;;;;;;;21.37;17.00;;;;;;;8.18;81.16;99881.59;1776140;79;21208;-89
2020/12/30 15:25:17;;;;;;;19.47;14.57;;;;;;;8.16;81.09;99876.46;1777068;79;21322;-90
2020/12/30 15:27:47;;;;;;;24.50;17.67;;;;;;;8.19;80.84;99873.93;1790624;78;21278;-88
2020/12/30 15:30:16;;;;;;;20.13;16.47;;;;;;;8.10;80.94;99884.31;1751460;80;21165;-90
2020/12/30 15:32:45;;;;;;;23.83;16.27;;;;;;;7.98;81.08;99879.98;1804783;78;21586;-88
2020/12/30 15:35:17;;;;;;;19.43;15.97;;;;;;;8.04;80.86;99870.46;1794811;78;21179;-88
2020/12/30 15:37:47;;;;;;;21.77;15.57;;;;;;;8.03;80.84;99872.81;1779970;80;21265;-89
2020/12/30 15:43:02;;;;;;;15.33;13.73;;;;;;;7.92;81.36;99872.24;1781302;79;39242;-89
2020/12/30 15:45:31;;;;;;;17.20;14.70;;;;;;;8.02;80.95;99888.41;1710534;82;21200;-88
2020/12/30 15:48:04;;;;;;;17.03;15.23;;;;;;;7.37;80.52;99767.39;1749080;81;21098;-88
2020/12/30 15:50:37;;;;;;;14.67;13.17;;;;;;;7.98;81.00;99876.81;1725632;80;21120;-87
2020/12/30 15:53:10;;;;;;;16.27;12.80;;;;;;;8.09;80.75;99876.05;1749034;80;21184;-89
2020/12/30 15:55:49;;;;;;;20.87;16.70;;;;;;;8.14;80.66;99868.37;1795911;79;23200;-89
2020/12/30 15:58:20;;;;;;;18.30;14.00;;;;;;;8.03;81.06;99874.14;1778590;79;21294;-91
2020/12/30 16:03:48;;;;;;;19.85;16.32;;;;;;;8.10;81.15;99861.76;1827606;76;22650;-89
2020/12/30 16:06:16;;;;;;;23.03;15.37;;;;;;;8.06;81.21;99861.33;1770849;79;21233;-89
2020/12/30 16:08:46;;;;;;;18.40;14.80;;;;;;;8.01;81.43;99860.23;1744563;81;21167;-89
2020/12/30 16:11:16;;;;;;;15.83;13.97;;;;;;;8.06;81.38;99860.48;1750914;80;21172;-88
2020/12/30 16:13:46;;;;;;;17.37;15.53;;;;;;;8.17;81.02;99867.98;1751238;80;21152;-91
2020/12/30 16:16:20;;;;;;;19.50;15.80;;;;;;;8.15;80.96;99867.34;1711356;82;21225;-89
2020/12/30 16:18:48;;;;;;;21.67;15.97;;;;;;;8.12;81.09;99865.08;1716729;82;21342;-90
2020/12/30 16:21:21;;;;;;;19.23;16.27;;;;;;;8.16;81.08;99855.73;1693787;84;21201;-88
2020/12/30 16:23:51;;;;;;;20.47;18.37;;;;;;;8.24;80.92;99856.14;1709334;82;21149;-87
2020/12/30 16:26:20;;;;;;;23.37;17.23;;;;;;;8.24;80.79;99862.77;1688895;83;21326;-93
2020/12/30 16:28:58;;;;;;;20.30;15.73;;;;;;;8.24;81.06;99864.92;1826418;77;23063;-89
2020/12/30 16:31:27;;;;;;;24.10;19.30;;;;;;;8.25;80.89;99877.20;1807485;77;21224;-90
2020/12/30 16:33:56;;;;;;;21.13;18.47;;;;;;;8.33;80.71;99867.80;1811388;77;21707;-88
2020/12/30 16:36:28;;;;;;;23.50;18.00;;;;;;;8.36;80.62;99866.11;1767397;80;21241;-88
2020/12/30 16:38:55;;;;;;;22.10;16.63;;;;;;;8.32;80.77;99853.37;1767306;81;21141;-89
2020/12/30 16:41:22;;;;;;;24.30;18.07;;;;;;;8.31;80.82;99864.50;1734183;80;21348;-89
2020/12/30 16:43:49;;;;;;;20.17;16.47;;;;;;;8.40;80.57;99857.27;1728381;82;21167;-87
2020/12/30 16:46:19;;;;;;;26.53;18.43;;;;;;;8.42;80.45;99853.95;1729592;81;21621;-89
2020/12/30 16:48:46;;;;;;;22.60;17.83;;;;;;;8.34;80.69;99861.48;1719092;82;21188;-89
2020/12/30 16:51:14;;;;;;;24.50;18.30;;;;;;;8.34;80.83;99856.66;1728739;81;21433;-90
2020/12/30 16:53:44;;;;;;;25.30;18.50;;;;;;;8.41;80.70;99854.09;1730742;81;21202;-88
2020/12/30 16:56:16;;;;;;;22.97;14.70;;;;;;;8.38;80.77;99853.95;1733430;81;21194;-90
2020/12/30 16:58:45;;;;;;;22.27;16.87;;;;;;;8.34;80.86;99852.67;1731069;81;21199;-87
2020/12/30 17:01:16;;;;;;;25.17;16.83;;;;;;;8.35;80.87;99854.34;1734497;81;21236;-92
2020/12/30 17:03:44;;;;;;;19.30;16.77;;;;;;;8.42;80.74;99849.12;1728870;82;21788;-88
2020/12/30 17:06:13;;;;;;;20.77;16.83;;;;;;;8.44;80.60;99845.77;1720974;82;21241;-91
2020/12/30 17:08:41;;;;;;;22.00;16.67;;;;;;;8.33;80.90;99851.05;1725764;81;21171;-87
2020/12/30 17:11:11;;;;;;;22.43;17.27;;;;;;;8.36;80.89;99850.66;1726647;81;21165;-89
2020/12/30 17:13:45;;;;;;;19.27;16.17;;;;;;;8.35;81.09;99847.70;1738552;82;21210;-90
2020/12/30 17:16:18;;;;;;;24.27;17.37;;;;;;;8.35;81.04;99860.47;1732382;82;21390;-90
2020/12/30 17:18:49;;;;;;;25.77;19.40;;;;;;;8.34;81.11;99850.87;1731897;81;21147;-90
2020/12/30 17:21:23;;;;;;;23.37;16.53;;;;;;;8.25;81.55;99853.78;1736704;81;21166;-89
2020/12/30 17:23:53;;;;;;;20.27;15.57;;;;;;;8.31;81.46;99855.72;1699561;81;21202;-87
2020/12/30 17:26:25;;;;;;;23.80;16.40;;;;;;;8.31;81.49;99853.88;1699495;81;21185;-89
2020/12/30 17:28:58;;;;;;;25.83;20.30;;;;;;;8.34;81.36;99856.17;1725969;81;21147;-88
2020/12/30 17:31:30;;;;;;;27.23;16.70;;;;;;;8.28;81.62;99862.72;1712873;83;21653;-88
2020/12/30 17:33:57;;;;;;;21.37;16.03;;;;;;;8.26;81.84;99854.12;1726166;81;21230;-89
2020/12/30 17:36:26;;;;;;;25.47;16.63;;;;;;;8.28;81.77;99852.91;1696612;81;21087;-87
2020/12/30 17:38:54;;;;;;;20.10;14.27;;;;;;;8.28;81.75;99854.75;1729315;81;21159;-88